createdAt,value
2019-04-14T00:00:36.857Z,42.20
2019-04-14T00:03:08.716Z,42.20
2019-04-14T00:05:36.985Z,42.40
2019-04-14T00:08:04.780Z,42.50
2019-04-14T00:10:33.256Z,42.60
2019-04-14T00:13:00.880Z,42.60
2019-04-14T00:15:35.594Z,42.80
2019-04-14T00:17:57.533Z,42.90
2019-04-14T00:20:25.270Z,43.10
2019-04-14T00:22:53.409Z,42.50
2019-04-14T00:25:21.649Z,42.50
2019-04-14T00:27:50.009Z,42.50
2019-04-14T00:30:18.847Z,42.40
2019-04-14T00:32:50.959Z,42.50
2019-04-14T00:35:21.021Z,42.50
2019-04-14T00:37:53.386Z,42.50
2019-04-14T00:40:33.010Z,42.50
2019-04-14T00:43:02.736Z,42.60
2019-04-14T00:45:41.544Z,42.40
2019-04-14T00:48:09.090Z,42.40
2019-04-14T00:50:32.022Z,42.50
2019-04-14T00:52:59.533Z,42.70
2019-04-14T00:55:27.168Z,42.50
2019-04-14T00:57:55.123Z,43.00
2019-04-14T01:00:23.394Z,42.40
2019-04-14T01:02:51.589Z,42.30
2019-04-14T01:05:19.565Z,42.30
2019-04-14T01:07:48.015Z,42.20
2019-04-14T01:10:15.561Z,42.20
2019-04-14T01:12:43.196Z,42.30
2019-04-14T01:15:11.541Z,42.40
2019-04-14T01:17:39.528Z,42.30
2019-04-14T01:20:07.924Z,42.40
2019-04-14T01:22:35.869Z,42.30
2019-04-14T01:25:04.355Z,42.30
2019-04-14T01:27:32.077Z,42.30
2019-04-14T01:30:00.351Z,42.30
2019-04-14T01:32:28.350Z,42.50
2019-04-14T01:34:56.966Z,42.70
2019-04-14T01:37:24.787Z,42.80
2019-04-14T01:39:52.561Z,42.60
2019-04-14T01:42:20.347Z,42.50
2019-04-14T01:44:48.161Z,42.60
2019-04-14T01:47:15.943Z,42.60
2019-04-14T01:49:44.387Z,42.50
2019-04-14T01:52:25.549Z,42.30
2019-04-14T01:54:58.276Z,42.30
2019-04-14T01:57:43.604Z,42.20
2019-04-14T02:00:16.322Z,42.20
2019-04-14T02:02:44.321Z,42.20
2019-04-14T02:05:12.396Z,42.00
2019-04-14T02:07:40.472Z,42.10
2019-04-14T02:10:08.620Z,42.20
2019-04-14T02:12:36.600Z,42.40
2019-04-14T02:15:05.417Z,42.60
2019-04-14T02:17:32.881Z,42.70
2019-04-14T02:20:01.225Z,42.70
2019-04-14T02:22:29.089Z,42.80
2019-04-14T02:24:57.071Z,42.80
2019-04-14T02:27:25.361Z,42.80
2019-04-14T02:29:53.846Z,42.80
2019-04-14T02:32:54.970Z,42.70
2019-04-14T02:35:22.781Z,42.80
2019-04-14T02:40:18.611Z,42.60
2019-04-14T02:42:58.131Z,42.70
2019-04-14T02:45:19.085Z,42.50
2019-04-14T02:48:00.029Z,42.60
2019-04-14T02:52:46.528Z,42.60
2019-04-14T02:57:38.244Z,42.50
2019-04-14T03:00:11.623Z,42.50
2019-04-14T03:02:40.803Z,43.30
2019-04-14T03:05:04.112Z,42.60
2019-04-14T03:07:37.879Z,42.60
2019-04-14T03:10:03.177Z,42.40
2019-04-14T03:12:40.655Z,42.50
2019-04-14T03:15:01.275Z,42.40
2019-04-14T03:20:27.834Z,42.30
2019-04-14T03:22:55.828Z,42.50
2019-04-14T03:25:26.544Z,42.50
2019-04-14T03:27:59.278Z,42.60
2019-04-14T03:38:08.059Z,42.50
2019-04-14T03:40:33.775Z,42.70
2019-04-14T03:43:13.619Z,42.70
2019-04-14T03:45:42.874Z,42.90
2019-04-14T03:48:17.673Z,42.70
2019-04-14T03:50:29.060Z,42.70
2019-04-14T03:55:16.234Z,42.60
2019-04-14T03:57:31.586Z,42.70
2019-04-14T04:00:00.692Z,42.60
2019-04-14T04:02:29.348Z,42.40
2019-04-14T04:04:57.722Z,42.30
2019-04-14T04:07:25.703Z,42.30
2019-04-14T04:09:56.110Z,42.20
2019-04-14T04:12:24.689Z,42.10
2019-04-14T04:14:53.122Z,42.10
2019-04-14T04:17:38.739Z,42.20
2019-04-14T04:20:08.914Z,42.60
2019-04-14T04:22:54.362Z,42.80
2019-04-14T04:25:24.638Z,42.70
2019-04-14T04:28:03.766Z,42.60
2019-04-14T04:30:36.241Z,42.60
2019-04-14T04:33:08.712Z,42.50
2019-04-14T04:35:37.926Z,42.40
2019-04-14T04:38:16.014Z,42.40
2019-04-14T04:40:43.992Z,42.30
2019-04-14T04:43:12.576Z,42.30
2019-04-14T04:45:40.889Z,42.50
2019-04-14T04:48:08.918Z,42.50
2019-04-14T04:50:36.831Z,42.40
2019-04-14T04:53:04.801Z,42.40
2019-04-14T04:55:32.921Z,42.60
2019-04-14T04:58:01.372Z,42.60
2019-04-14T05:00:29.045Z,42.70
2019-04-14T05:02:57.122Z,42.70
2019-04-14T05:05:43.027Z,42.60
2019-04-14T05:08:10.845Z,42.60
2019-04-14T05:10:43.611Z,42.90
2019-04-14T05:13:11.828Z,42.80
2019-04-14T05:15:42.304Z,42.60
2019-04-14T05:18:11.575Z,42.60
2019-04-14T05:20:39.826Z,42.60
2019-04-14T05:23:08.062Z,42.60
2019-04-14T05:25:36.578Z,42.50
2019-04-14T05:28:04.801Z,42.50
2019-04-14T05:30:32.866Z,42.50
2019-04-14T05:33:00.920Z,42.50
2019-04-14T05:35:29.092Z,42.60
2019-04-14T05:37:57.330Z,42.40
2019-04-14T05:40:25.621Z,42.50
2019-04-14T05:42:53.733Z,42.60
2019-04-14T05:45:22.000Z,42.60
2019-04-14T05:47:50.122Z,42.80
2019-04-14T05:50:18.201Z,42.70
2019-04-14T05:52:45.807Z,42.70
2019-04-14T05:55:15.517Z,42.60
2019-04-14T05:57:43.799Z,42.60
2019-04-14T06:00:12.982Z,42.60
2019-04-14T06:02:40.450Z,42.60
2019-04-14T06:05:09.168Z,42.60
2019-04-14T06:07:37.119Z,42.60
2019-04-14T06:10:05.649Z,42.50
2019-04-14T06:12:33.115Z,42.50
2019-04-14T06:15:00.573Z,42.30
2019-04-14T06:17:28.084Z,42.30
2019-04-14T06:19:55.595Z,42.40
2019-04-14T06:22:23.074Z,42.60
2019-04-14T06:24:50.536Z,42.60
2019-04-14T06:27:18.029Z,42.60
2019-04-14T06:29:46.067Z,42.60
2019-04-14T06:32:18.181Z,42.50
2019-04-14T06:34:49.985Z,42.50
2019-04-14T06:37:21.774Z,42.60
2019-04-14T06:39:50.881Z,42.60
2019-04-14T06:42:18.357Z,42.60
2019-04-14T06:44:45.820Z,42.60
2019-04-14T06:47:13.386Z,42.60
2019-04-14T06:49:48.975Z,42.60
2019-04-14T06:52:10.068Z,42.60
2019-04-14T06:54:37.537Z,43.00
2019-04-14T06:57:04.999Z,43.00
2019-04-14T06:59:32.517Z,43.10
2019-04-14T07:02:01.896Z,43.10
2019-04-14T07:04:29.173Z,43.10
2019-04-14T07:06:56.646Z,42.90
2019-04-14T07:09:24.117Z,42.90
2019-04-14T07:11:51.637Z,42.80
2019-04-14T07:14:19.225Z,42.80
2019-04-14T07:16:46.699Z,42.90
2019-04-14T07:19:14.197Z,42.90
2019-04-14T07:21:41.662Z,42.80
2019-04-14T07:24:09.188Z,42.80
2019-04-14T07:26:36.939Z,42.80
2019-04-14T07:29:04.414Z,42.80
2019-04-14T07:31:39.638Z,42.80
2019-04-14T07:34:08.744Z,42.80
2019-04-14T07:36:37.845Z,43.20
2019-04-14T07:39:19.649Z,43.20
2019-04-14T07:41:51.730Z,43.30
2019-04-14T07:44:27.016Z,43.40
2019-04-14T07:46:56.126Z,43.50
2019-04-14T07:49:25.238Z,43.50
2019-04-14T07:52:03.635Z,43.30
2019-04-14T07:54:32.745Z,43.40
2019-04-14T07:57:13.909Z,43.20
2019-04-14T07:59:43.008Z,43.20
2019-04-14T08:02:21.073Z,43.10
2019-04-14T08:04:50.183Z,43.10
2019-04-14T08:07:17.640Z,43.10
2019-04-14T08:09:45.105Z,43.10
2019-04-14T08:12:12.578Z,43.00
2019-04-14T08:14:40.071Z,43.00
2019-04-14T08:17:07.522Z,43.00
2019-04-14T08:19:34.994Z,43.30
2019-04-14T08:22:02.486Z,43.40
2019-04-14T08:24:30.202Z,43.50
2019-04-14T08:26:57.666Z,43.40
2019-04-14T08:29:25.490Z,43.30
2019-04-14T08:31:52.958Z,43.20
2019-04-14T08:34:20.424Z,43.10
2019-04-14T08:36:47.902Z,43.20
2019-04-14T08:39:15.402Z,43.10
2019-04-14T08:41:44.519Z,43.20
2019-04-14T08:44:16.344Z,43.10
2019-04-14T08:46:45.464Z,43.10
2019-04-14T08:49:14.592Z,43.20
2019-04-14T08:51:49.451Z,43.30
2019-04-14T08:54:24.496Z,43.30
2019-04-14T08:57:05.869Z,42.80
2019-04-14T08:59:43.896Z,42.80
2019-04-14T09:02:13.012Z,42.60
2019-04-14T09:04:48.102Z,42.40
2019-04-14T09:07:23.051Z,42.40
2019-04-14T09:09:54.825Z,42.40
2019-04-14T09:12:27.141Z,42.60
2019-04-14T09:14:57.088Z,42.60
2019-04-14T09:17:24.104Z,42.60
2019-04-14T09:19:51.918Z,43.20
2019-04-14T09:22:19.516Z,42.50
2019-04-14T09:24:47.098Z,42.60
2019-04-14T09:27:14.576Z,42.30
2019-04-14T09:29:42.033Z,42.30
2019-04-14T09:32:10.768Z,42.30
2019-04-14T09:34:38.235Z,41.80
2019-04-14T09:37:05.775Z,42.40
2019-04-14T09:39:33.245Z,42.30
2019-04-14T09:42:01.426Z,42.30
2019-04-14T09:44:28.894Z,42.30
2019-04-14T09:46:56.378Z,42.30
2019-04-14T09:49:23.841Z,42.20
2019-04-14T09:51:51.330Z,42.30
2019-04-14T09:54:18.799Z,42.30
2019-04-14T09:56:46.274Z,42.30
2019-04-14T09:59:13.739Z,42.30
2019-04-14T10:01:41.305Z,42.20
2019-04-14T10:04:08.768Z,42.20
2019-04-14T10:06:36.238Z,42.50
2019-04-14T10:09:05.122Z,42.50
2019-04-14T10:11:32.582Z,42.50
2019-04-14T10:14:00.051Z,42.40
2019-04-14T10:16:27.521Z,42.40
2019-04-14T10:18:54.993Z,42.50
2019-04-14T10:21:22.475Z,43.20
2019-04-14T10:23:49.947Z,42.70
2019-04-14T10:26:17.404Z,42.60
2019-04-14T10:28:44.886Z,42.50
2019-04-14T10:31:12.346Z,42.40
2019-04-14T10:33:39.814Z,42.30
2019-04-14T10:36:07.282Z,42.30
2019-04-14T10:38:34.755Z,42.40
2019-04-14T10:41:02.210Z,42.50
2019-04-14T10:43:29.691Z,42.70
2019-04-14T10:45:57.154Z,42.70
2019-04-14T10:48:24.631Z,42.60
2019-04-14T10:50:52.106Z,42.80
2019-04-14T10:53:19.924Z,42.80
2019-04-14T10:55:47.388Z,42.80
2019-04-14T10:58:14.849Z,42.70
2019-04-14T11:00:42.332Z,42.60
2019-04-14T11:03:09.796Z,42.70
2019-04-14T11:05:38.924Z,42.50
2019-04-14T11:08:06.398Z,42.50
2019-04-14T11:10:34.012Z,42.50
2019-04-14T11:13:01.492Z,42.70
2019-04-14T11:15:29.010Z,42.70
2019-04-14T11:17:56.482Z,42.70
2019-04-14T11:20:23.944Z,42.70
2019-04-14T11:23:02.858Z,42.80
2019-04-14T11:25:20.692Z,42.60
2019-04-14T11:27:48.170Z,42.70
2019-04-14T11:30:20.189Z,42.70
2019-04-14T11:32:58.293Z,42.60
2019-04-14T11:35:33.147Z,42.50
2019-04-14T11:38:10.724Z,42.60
2019-04-14T11:40:39.837Z,42.40
2019-04-14T11:43:07.305Z,42.30
2019-04-14T11:45:34.937Z,42.30
2019-04-14T11:48:02.408Z,42.30
2019-04-14T11:50:29.874Z,42.30
2019-04-14T11:52:57.337Z,42.20
2019-04-14T11:55:24.853Z,42.30
2019-04-14T11:57:52.314Z,42.30
2019-04-14T12:00:30.516Z,42.10
2019-04-14T12:02:59.624Z,42.50
2019-04-14T12:05:45.127Z,42.60
2019-04-14T12:08:26.038Z,42.70
2019-04-14T12:10:53.523Z,42.50
2019-04-14T12:13:20.988Z,42.50
2019-04-14T12:15:48.472Z,42.60
2019-04-14T12:18:16.009Z,42.60
2019-04-14T12:20:43.502Z,42.50
2019-04-14T12:23:10.977Z,42.40
2019-04-14T12:25:38.544Z,42.50
2019-04-14T12:28:06.967Z,42.40
2019-04-14T12:30:35.603Z,42.40
2019-04-14T12:33:03.206Z,42.40
2019-04-14T12:35:30.717Z,42.40
2019-04-14T12:37:58.239Z,42.20
2019-04-14T12:40:25.713Z,42.50
2019-04-14T12:42:57.811Z,42.40
2019-04-14T12:45:45.254Z,42.30
2019-04-14T12:48:17.169Z,42.30
2019-04-14T12:50:46.291Z,42.30
2019-04-14T12:53:13.753Z,42.50
2019-04-14T12:55:41.269Z,42.50
2019-04-14T12:58:11.365Z,42.60
2019-04-14T13:00:46.504Z,42.60
2019-04-14T13:03:13.978Z,42.60
2019-04-14T13:05:41.449Z,42.60
2019-04-14T13:08:08.910Z,42.50
2019-04-14T13:10:36.394Z,42.50
2019-04-14T13:13:03.852Z,43.10
2019-04-14T13:15:31.319Z,42.40
2019-04-14T13:17:58.807Z,42.30
2019-04-14T13:20:26.351Z,42.30
2019-04-14T13:22:53.812Z,42.30
2019-04-14T13:25:21.281Z,42.20
2019-04-14T13:27:50.123Z,42.20
2019-04-14T13:30:19.223Z,42.30
2019-04-14T13:32:46.802Z,42.30
2019-04-14T13:35:14.267Z,42.50
2019-04-14T13:37:41.745Z,42.60
2019-04-14T13:40:09.231Z,42.70
2019-04-14T13:42:36.705Z,42.80
2019-04-14T13:45:05.069Z,42.80
2019-04-14T13:47:32.538Z,42.70
2019-04-14T13:50:00.005Z,42.60
2019-04-14T13:52:27.469Z,42.50
2019-04-14T13:54:54.946Z,42.40
2019-04-14T13:57:22.494Z,42.40
2019-04-14T13:59:49.953Z,42.30
2019-04-14T14:02:17.497Z,42.60
2019-04-14T14:04:44.965Z,42.60
2019-04-14T14:07:12.797Z,42.80
2019-04-14T14:09:40.265Z,42.80
2019-04-14T14:12:24.401Z,42.80
2019-04-14T14:14:53.502Z,42.90
2019-04-14T14:17:34.434Z,42.80
2019-04-14T14:20:08.985Z,43.40
2019-04-14T14:22:59.258Z,42.70
2019-04-14T14:25:39.050Z,42.70
2019-04-14T14:28:06.536Z,42.80
2019-04-14T14:30:34.012Z,42.80
2019-04-14T14:33:01.559Z,42.80
2019-04-14T14:35:29.038Z,42.80
2019-04-14T14:37:56.516Z,42.90
2019-04-14T14:40:23.983Z,42.80
2019-04-14T14:42:51.491Z,42.80
2019-04-14T14:45:37.009Z,42.70
2019-04-14T14:48:22.602Z,42.50
2019-04-14T14:50:54.410Z,42.50
2019-04-14T14:53:22.357Z,42.40
2019-04-14T14:55:50.044Z,42.50
2019-04-14T14:58:17.502Z,42.70
2019-04-14T15:00:45.041Z,42.70
2019-04-14T15:03:12.680Z,42.60
2019-04-14T15:05:40.146Z,42.50
2019-04-14T15:08:07.629Z,42.50
2019-04-14T15:10:35.093Z,42.50
2019-04-14T15:13:02.575Z,43.10
2019-04-14T15:15:30.026Z,42.30
2019-04-14T15:17:57.860Z,42.30
2019-04-14T15:20:25.329Z,42.30
2019-04-14T15:22:52.797Z,42.30
2019-04-14T15:25:20.262Z,42.30
2019-04-14T15:27:47.810Z,42.20
2019-04-14T15:30:16.920Z,42.20
2019-04-14T15:32:44.381Z,42.20
2019-04-14T15:35:11.858Z,42.20
2019-04-14T15:37:39.354Z,42.40
2019-04-14T15:40:07.486Z,42.40
2019-04-14T15:42:34.960Z,42.60
2019-04-14T15:45:02.440Z,42.60
2019-04-14T15:47:29.915Z,42.60
2019-04-14T15:49:57.394Z,42.60
2019-04-14T15:52:24.857Z,42.60
2019-04-14T15:54:52.326Z,42.60
2019-04-14T15:57:27.301Z,42.50
2019-04-14T15:59:56.404Z,42.50
2019-04-14T16:02:28.477Z,42.50
2019-04-14T16:05:00.310Z,42.80
2019-04-14T16:07:47.554Z,42.50
2019-04-14T16:10:33.250Z,42.30
2019-04-14T16:13:02.354Z,42.40
2019-04-14T16:15:37.390Z,42.40
2019-04-14T16:18:23.151Z,42.30
2019-04-14T16:20:50.616Z,42.30
2019-04-14T16:23:18.083Z,42.80
2019-04-14T16:26:05.599Z,43.50
2019-04-14T16:28:40.606Z,43.20
2019-04-14T16:31:22.010Z,43.30
2019-04-14T16:34:03.367Z,43.20
2019-04-14T16:36:31.019Z,43.40
2019-04-14T16:38:58.497Z,43.30
2019-04-14T16:41:25.976Z,43.30
2019-04-14T16:43:53.458Z,43.20
2019-04-14T16:46:20.923Z,43.20
2019-04-14T16:48:48.386Z,43.30
2019-04-14T16:51:17.510Z,43.30
2019-04-14T16:53:46.676Z,43.30
2019-04-14T16:56:18.748Z,43.20
2019-04-14T16:58:50.606Z,43.40
2019-04-14T17:01:22.387Z,43.30
2019-04-14T17:03:49.852Z,43.20
2019-04-14T17:06:17.317Z,43.70
2019-04-14T17:08:45.141Z,43.40
2019-04-14T17:11:12.624Z,44.00
2019-04-14T17:13:41.962Z,44.10
2019-04-14T17:16:13.820Z,43.90
2019-04-14T17:18:42.916Z,43.80
2019-04-14T17:21:23.722Z,43.70
2019-04-14T17:23:55.778Z,43.70
2019-04-14T17:26:27.659Z,43.80
2019-04-14T17:28:56.844Z,43.80
2019-04-14T17:31:28.927Z,43.80
2019-04-14T17:34:16.362Z,43.80
2019-04-14T17:36:45.488Z,43.80
2019-04-14T17:39:14.593Z,43.80
2019-04-14T17:41:43.701Z,43.90
2019-04-14T17:44:12.809Z,43.90
2019-04-14T17:46:58.694Z,44.00
2019-04-14T17:49:36.742Z,43.90
2019-04-14T17:52:22.162Z,44.00
2019-04-14T17:55:00.045Z,44.20
2019-04-14T17:57:45.422Z,44.30
2019-04-14T18:00:32.752Z,44.10
2019-04-14T18:03:07.714Z,43.90
2019-04-14T18:05:45.898Z,43.90
2019-04-14T18:08:31.277Z,43.80
2019-04-14T18:11:15.450Z,43.90
2019-04-14T18:13:56.522Z,43.80
2019-04-14T18:16:34.658Z,43.90
2019-04-14T18:19:07.641Z,43.90
2019-04-14T18:21:35.122Z,43.90
2019-04-14T18:24:02.863Z,44.00
2019-04-14T18:26:30.327Z,44.00
2019-04-14T18:28:59.450Z,43.80
2019-04-14T18:31:31.468Z,43.80
2019-04-14T18:34:12.292Z,43.90
2019-04-14T18:36:46.382Z,44.30
2019-04-14T18:39:34.144Z,44.30
2019-04-14T18:42:21.525Z,44.40
2019-04-14T18:44:56.137Z,44.60
2019-04-14T18:47:27.662Z,44.20
2019-04-14T18:49:59.909Z,44.60
2019-04-14T18:52:29.094Z,44.50
2019-04-14T18:55:01.266Z,44.50
2019-04-14T18:57:36.476Z,44.40
2019-04-14T19:00:12.214Z,44.20
2019-04-14T19:02:39.682Z,44.30
2019-04-14T19:05:07.138Z,44.30
2019-04-14T19:07:34.610Z,44.20
2019-04-14T19:10:02.086Z,44.20
2019-04-14T19:12:43.513Z,44.10
2019-04-14T19:15:18.783Z,44.10
2019-04-14T19:17:47.891Z,44.00
2019-04-14T19:20:16.851Z,44.00
2019-04-14T19:22:44.394Z,44.10
2019-04-14T19:25:11.893Z,44.20
2019-04-14T19:27:39.392Z,44.30
2019-04-14T19:30:06.869Z,44.20
2019-04-14T19:32:34.422Z,44.20
2019-04-14T19:35:01.923Z,44.30
2019-04-14T19:37:29.434Z,44.30
2019-04-14T19:39:56.910Z,44.30
2019-04-14T19:42:24.373Z,44.30
2019-04-14T19:44:51.846Z,44.30
2019-04-14T19:47:19.318Z,44.30
2019-04-14T19:49:46.799Z,44.30
2019-04-14T19:52:14.253Z,44.30
2019-04-14T19:54:41.748Z,44.40
2019-04-14T19:57:09.223Z,44.30
2019-04-14T19:59:36.698Z,44.30
2019-04-14T20:02:04.158Z,44.30
2019-04-14T20:04:31.628Z,44.20
2019-04-14T20:06:59.088Z,44.30
2019-04-14T20:09:26.616Z,44.30
2019-04-14T20:11:54.081Z,44.30
2019-04-14T20:14:21.556Z,44.30
2019-04-14T20:16:53.617Z,44.10
2019-04-14T20:19:25.442Z,44.00
2019-04-14T20:21:54.554Z,43.90
2019-04-14T20:24:35.666Z,43.80
2019-04-14T20:27:21.630Z,43.80
2019-04-14T20:29:50.738Z,43.70
2019-04-14T20:32:19.840Z,43.70
2019-04-14T20:34:47.319Z,43.80
2019-04-14T20:37:15.158Z,43.80
2019-04-14T20:39:43.015Z,43.80
2019-04-14T20:42:10.766Z,43.70
2019-04-14T20:44:38.236Z,43.70
2019-04-14T20:47:07.343Z,43.70
2019-04-14T20:49:34.818Z,43.70
2019-04-14T20:52:02.294Z,43.90
2019-04-14T20:54:29.783Z,44.00
2019-04-14T20:56:57.254Z,44.00
2019-04-14T20:59:24.981Z,43.90
2019-04-14T21:01:54.103Z,43.80
2019-04-14T21:04:23.281Z,43.90
2019-04-14T21:06:58.286Z,43.80
2019-04-14T21:09:30.042Z,43.80
2019-04-14T21:11:59.154Z,43.60
2019-04-14T21:14:43.337Z,43.70
2019-04-14T21:17:12.444Z,44.30
2019-04-14T21:19:44.490Z,43.50
2019-04-14T21:22:19.162Z,43.40
2019-04-14T21:25:04.825Z,43.40
2019-04-14T21:27:48.998Z,43.30
2019-04-14T21:30:20.804Z,43.30
2019-04-14T21:32:49.918Z,43.50
2019-04-14T21:35:19.034Z,43.70
2019-04-14T21:38:03.470Z,43.70
2019-04-14T21:40:47.451Z,43.80
2019-04-14T21:43:14.989Z,43.90
2019-04-14T21:45:42.459Z,44.00
2019-04-14T21:48:09.927Z,44.00
2019-04-14T21:50:37.567Z,44.00
2019-04-14T21:53:05.138Z,43.90
2019-04-14T21:55:32.782Z,43.80
2019-04-14T21:58:04.592Z,43.70
2019-04-14T22:01:06.053Z,43.80
2019-04-14T22:03:35.174Z,43.80
2019-04-14T22:06:06.725Z,43.70
2019-04-14T22:08:35.841Z,43.70
2019-04-14T22:11:07.905Z,43.70
2019-04-14T22:13:35.369Z,43.70
2019-04-14T22:16:03.217Z,43.60
2019-04-14T22:18:30.693Z,43.60
2019-04-14T22:20:58.153Z,43.70
2019-04-14T22:23:25.635Z,43.70
2019-04-14T22:25:53.165Z,43.70
2019-04-14T22:28:20.686Z,43.60
2019-04-14T22:30:48.327Z,43.60
2019-04-14T22:33:15.875Z,43.50
2019-04-14T22:35:43.353Z,43.40
2019-04-14T22:38:10.826Z,43.40
2019-04-14T22:40:38.283Z,43.40
2019-04-14T22:43:05.742Z,43.30
2019-04-14T22:45:33.249Z,43.40
2019-04-14T22:48:00.732Z,43.60
2019-04-14T22:50:28.206Z,43.40
2019-04-14T22:52:55.677Z,43.40
2019-04-14T22:55:23.158Z,43.30
2019-04-14T22:57:50.617Z,43.40
2019-04-14T23:00:26.474Z,43.40
2019-04-14T23:02:55.570Z,43.50
2019-04-14T23:05:36.892Z,43.60
2019-04-14T23:08:08.843Z,43.60
2019-04-14T23:10:40.049Z,43.60
2019-04-14T23:13:09.162Z,43.60
2019-04-14T23:15:40.956Z,44.20
2019-04-14T23:18:13.238Z,43.60
2019-04-14T23:20:48.539Z,43.50
2019-04-14T23:23:17.651Z,44.10
2019-04-14T23:25:45.123Z,43.40
2019-04-14T23:28:12.593Z,43.40
2019-04-14T23:30:40.070Z,43.30
2019-04-14T23:33:07.530Z,43.20
2019-04-14T23:35:35.009Z,43.10
2019-04-14T23:38:02.477Z,43.10
2019-04-14T23:40:29.944Z,43.10
2019-04-14T23:42:57.424Z,43.80
2019-04-14T23:45:24.969Z,43.30
2019-04-14T23:47:52.440Z,43.40
2019-04-14T23:50:19.912Z,43.40
2019-04-14T23:52:47.386Z,43.40
2019-04-14T23:55:14.850Z,43.40
2019-04-14T23:57:42.332Z,43.40
